Time;durP1;ratioP1;P1;durP2;ratioP2;P2;SDS_P1;SDS_P2;PMS_P1;PMS_P2;Temp;Humidity;BMP_temperature;BMP_pressure;BME280_temperature;BME280_humidity;BME280_pressure;Samples;Min_cycle;Max_cycle;Signal;HPM_P1;HPM_P2
2022/08/02 00:02:18;;;;;;;10.73;4.60;;;12.70;99.90;;;;;;5055382;28;20056;-75
2022/08/02 00:04:45;;;;;;;9.60;4.63;;;12.70;99.90;;;;;;5055083;28;20469;-76
2022/08/02 00:07:10;;;;;;;13.98;4.93;;;12.80;99.90;;;;;;5056111;28;20436;-75
2022/08/02 00:09:36;;;;;;;11.82;4.97;;;12.80;99.90;;;;;;5055129;28;20116;-75
2022/08/02 00:12:02;;;;;;;14.63;4.78;;;12.80;99.90;;;;;;5056218;28;20374;-75
2022/08/02 00:14:28;;;;;;;9.15;4.35;;;12.70;99.90;;;;;;5056159;28;20373;-75
2022/08/02 00:16:53;;;;;;;10.10;4.68;;;12.80;99.90;;;;;;5056119;28;20041;-76
2022/08/02 00:19:19;;;;;;;13.15;4.85;;;12.80;99.90;;;;;;5055016;28;20098;-75
2022/08/02 00:21:45;;;;;;;10.57;4.60;;;12.80;99.90;;;;;;5054856;28;20051;-75
2022/08/02 00:24:10;;;;;;;11.55;4.35;;;12.70;99.90;;;;;;5054477;28;20056;-76
2022/08/02 00:26:36;;;;;;;10.68;4.45;;;12.70;99.90;;;;;;5055907;28;20045;-76
2022/08/02 00:29:03;;;;;;;11.57;4.53;;;12.70;99.90;;;;;;5053482;28;20052;-75
2022/08/02 00:31:28;;;;;;;14.23;5.05;;;12.70;99.90;;;;;;5054608;28;20110;-76
2022/08/02 00:33:54;;;;;;;11.70;4.00;;;12.70;99.90;;;;;;5055748;28;20037;-76
2022/08/02 00:36:20;;;;;;;12.00;4.45;;;12.70;99.90;;;;;;5055751;28;20103;-75
2022/08/02 00:38:47;;;;;;;11.30;4.32;;;12.70;99.90;;;;;;5055759;28;20090;-75
2022/08/02 00:41:21;;;;;;;9.60;4.28;;;12.70;99.90;;;;;;5054296;28;20079;-77
2022/08/02 00:43:48;;;;;;;13.13;5.20;;;12.70;99.90;;;;;;5055672;28;20076;-77
2022/08/02 00:46:15;;;;;;;9.00;4.55;;;12.60;99.90;;;;;;5054277;28;20475;-77
2022/08/02 00:48:41;;;;;;;12.73;5.18;;;12.60;99.90;;;;;;5054472;28;20037;-77
2022/08/02 00:51:07;;;;;;;13.25;5.43;;;12.60;99.90;;;;;;5055517;28;20114;-77
2022/08/02 00:53:33;;;;;;;8.82;5.22;;;12.60;99.90;;;;;;5055512;28;20422;-77
2022/08/02 00:55:59;;;;;;;10.80;4.95;;;12.70;99.90;;;;;;5055538;28;20132;-77
2022/08/02 00:58:25;;;;;;;11.35;5.00;;;12.60;99.90;;;;;;5054312;28;20548;-77
2022/08/02 01:00:50;;;;;;;11.63;5.43;;;12.60;99.90;;;;;;5055173;28;20135;-75
2022/08/02 01:03:16;;;;;;;12.60;5.22;;;12.60;99.90;;;;;;5053956;28;20045;-75
2022/08/02 01:05:43;;;;;;;13.63;5.38;;;12.60;99.90;;;;;;5055206;28;20475;-75
2022/08/02 01:08:09;;;;;;;10.52;5.07;;;12.60;99.90;;;;;;5055162;28;20049;-75
2022/08/02 01:10:35;;;;;;;13.25;5.35;;;12.60;99.90;;;;;;5054039;28;20140;-75
2022/08/02 01:13:00;;;;;;;11.18;4.78;;;12.60;99.90;;;;;;5053798;28;20057;-75
2022/08/02 01:15:27;;;;;;;11.77;5.28;;;12.60;99.90;;;;;;5055021;28;20049;-75
2022/08/02 01:18:15;;;;;;;15.32;4.60;;;12.60;99.90;;;;;;5054916;28;20130;-75
2022/08/02 01:20:58;;;;;;;12.95;5.20;;;12.60;99.90;;;;;;5053893;28;20052;-75
2022/08/02 01:23:51;;;;;;;13.50;5.07;;;12.60;99.90;;;;;;5053854;28;20052;-75
2022/08/02 01:26:41;;;;;;;17.13;5.72;;;12.60;99.90;;;;;;5053330;28;20106;-75
2022/08/02 01:29:44;;;;;;;16.35;4.70;;;12.50;99.90;;;;;;5053349;28;20091;-75
2022/08/02 01:32:11;;;;;;;15.88;5.57;;;12.50;99.90;;;;;;5050268;28;20128;-75
2022/08/02 01:34:40;;;;;;;8.55;4.40;;;12.50;99.90;;;;;;5053417;28;20365;-76
2022/08/02 01:37:21;;;;;;;10.00;4.68;;;12.50;99.90;;;;;;5053601;28;20080;-75
2022/08/02 01:39:54;;;;;;;12.30;5.75;;;12.60;99.90;;;;;;5053439;28;20076;-76
2022/08/02 01:42:22;;;;;;;11.00;4.78;;;12.50;99.90;;;;;;5053570;28;20045;-75
2022/08/02 01:44:49;;;;;;;16.80;4.95;;;12.60;99.90;;;;;;5053245;28;20045;-75
2022/08/02 01:47:21;;;;;;;9.95;4.50;;;12.50;99.90;;;;;;5054188;28;20488;-75
2022/08/02 01:49:50;;;;;;;14.43;4.85;;;12.60;99.90;;;;;;5053270;28;20571;-75
2022/08/02 01:52:21;;;;;;;10.73;4.60;;;12.60;99.90;;;;;;5054191;28;20503;-75
2022/08/02 01:55:04;;;;;;;13.30;4.38;;;12.60;99.90;;;;;;5054289;28;20097;-75
2022/08/02 01:57:39;;;;;;;11.50;4.60;;;12.70;99.90;;;;;;5054229;28;20049;-75
2022/08/02 02:00:07;;;;;;;10.15;4.50;;;12.60;99.90;;;;;;5052770;28;20037;-75
2022/08/02 02:02:36;;;;;;;9.52;4.75;;;12.60;99.90;;;;;;5054158;28;20098;-75
2022/08/02 02:05:04;;;;;;;12.02;5.32;;;12.60;99.90;;;;;;5052686;28;20041;-75
2022/08/02 02:07:33;;;;;;;12.02;4.80;;;12.60;99.90;;;;;;5054112;28;20045;-75
2022/08/02 02:10:01;;;;;;;10.68;4.93;;;12.60;99.90;;;;;;5053907;28;20500;-75
2022/08/02 02:12:30;;;;;;;12.23;5.22;;;12.60;99.90;;;;;;5053993;28;20048;-75
2022/08/02 02:14:56;;;;;;;11.07;5.22;;;12.60;99.90;;;;;;5052852;28;20056;-75
2022/08/02 02:17:24;;;;;;;10.88;4.95;;;12.70;99.90;;;;;;5052843;28;20076;-75
2022/08/02 02:19:51;;;;;;;12.45;5.22;;;12.60;99.90;;;;;;5052872;28;20045;-75
2022/08/02 02:22:16;;;;;;;11.52;5.18;;;12.60;99.90;;;;;;5053737;28;20514;-75
2022/08/02 02:24:42;;;;;;;13.20;5.05;;;12.60;99.90;;;;;;5052486;28;20036;-75
2022/08/02 02:27:10;;;;;;;10.13;5.25;;;12.60;99.90;;;;;;5053622;28;20072;-75
2022/08/02 02:29:42;;;;;;;13.95;4.78;;;12.60;99.90;;;;;;5053452;28;20053;-75
2022/08/02 02:32:08;;;;;;;10.18;5.05;;;12.60;99.90;;;;;;5052518;28;20251;-75
2022/08/02 02:34:41;;;;;;;14.93;4.80;;;12.60;99.90;;;;;;5053748;28;20557;-75
2022/08/02 02:37:12;;;;;;;9.20;4.50;;;12.60;99.90;;;;;;5053777;28;20120;-75
2022/08/02 02:39:40;;;;;;;13.18;5.50;;;12.60;99.90;;;;;;5052329;28;20056;-75
2022/08/02 02:42:09;;;;;;;10.27;4.72;;;12.60;99.90;;;;;;5053669;28;20041;-75
2022/08/02 02:44:37;;;;;;;13.77;5.22;;;12.60;99.90;;;;;;5053572;28;20139;-76
2022/08/02 02:47:04;;;;;;;19.08;5.45;;;12.60;99.90;;;;;;5053585;28;20053;-76
2022/08/02 02:49:33;;;;;;;14.88;5.85;;;12.50;99.90;;;;;;5053496;28;20519;-75
2022/08/02 02:51:59;;;;;;;12.88;4.63;;;12.50;99.90;;;;;;5053557;28;20059;-75
2022/08/02 02:54:27;;;;;;;12.65;5.00;;;12.40;99.90;;;;;;5056330;28;20047;-75
2022/08/02 02:56:54;;;;;;;11.68;5.00;;;12.50;99.90;;;;;;5057661;28;20037;-75
2022/08/02 02:59:20;;;;;;;14.55;4.82;;;12.50;99.90;;;;;;5057450;28;20510;-75
2022/08/02 03:01:45;;;;;;;10.52;5.30;;;12.50;99.90;;;;;;5057482;28;20041;-75
2022/08/02 03:04:12;;;;;;;11.20;5.10;;;12.40;99.90;;;;;;5057255;28;20083;-75
2022/08/02 03:06:39;;;;;;;10.85;5.03;;;12.40;99.90;;;;;;5056281;28;20111;-75
2022/08/02 03:09:05;;;;;;;11.40;5.88;;;12.40;99.90;;;;;;5057605;28;20045;-75
2022/08/02 03:11:32;;;;;;;10.30;5.32;;;12.40;99.90;;;;;;5056022;28;20068;-76
2022/08/02 03:13:59;;;;;;;11.20;4.65;;;12.40;99.90;;;;;;5056275;28;20170;-75
2022/08/02 03:16:27;;;;;;;13.45;4.97;;;12.40;99.90;;;;;;5057135;28;20443;-76
2022/08/02 03:18:53;;;;;;;12.13;6.30;;;12.30;99.90;;;;;;5056056;28;20044;-75
2022/08/02 03:21:19;;;;;;;12.48;5.40;;;12.30;99.90;;;;;;5056043;28;20080;-75
2022/08/02 03:23:46;;;;;;;10.05;5.20;;;12.20;99.90;;;;;;5057118;28;20518;-75
2022/08/02 03:26:12;;;;;;;9.80;4.80;;;12.30;99.90;;;;;;5055741;28;20071;-75
2022/08/02 03:28:39;;;;;;;10.00;5.28;;;12.30;99.90;;;;;;5056778;28;20045;-75
2022/08/02 03:31:05;;;;;;;8.68;5.63;;;12.30;99.90;;;;;;5056868;28;20059;-76
2022/08/02 03:33:32;;;;;;;11.68;4.85;;;12.30;99.90;;;;;;5055800;28;20044;-75
2022/08/02 03:36:02;;;;;;;12.57;5.43;;;12.30;99.90;;;;;;5055522;28;20049;-75
2022/08/02 03:38:31;;;;;;;15.10;6.07;;;12.30;99.90;;;;;;5056801;28;20472;-75
2022/08/02 03:41:00;;;;;;;13.00;5.88;;;12.30;99.90;;;;;;5056807;28;20048;-76
2022/08/02 03:43:26;;;;;;;12.20;5.20;;;12.30;99.90;;;;;;5056534;28;20041;-75
2022/08/02 03:45:54;;;;;;;11.90;5.43;;;12.30;99.90;;;;;;5054933;28;20052;-75
2022/08/02 03:48:21;;;;;;;14.77;5.57;;;12.30;99.90;;;;;;5054565;28;20107;-76
2022/08/02 03:50:47;;;;;;;13.43;5.47;;;12.30;99.90;;;;;;5055818;28;20053;-76
2022/08/02 03:53:15;;;;;;;16.35;5.70;;;12.30;99.90;;;;;;5056431;28;20045;-75
2022/08/02 03:55:41;;;;;;;15.63;6.40;;;12.30;99.90;;;;;;5055304;28;20120;-75
2022/08/02 03:58:07;;;;;;;15.93;5.78;;;12.30;99.90;;;;;;5056422;28;20041;-75
2022/08/02 04:00:33;;;;;;;13.02;5.88;;;12.30;99.90;;;;;;5056367;28;20045;-75
2022/08/02 04:02:58;;;;;;;14.13;5.93;;;12.40;99.90;;;;;;5056040;28;20044;-75
2022/08/02 04:05:24;;;;;;;12.30;5.65;;;12.40;99.90;;;;;;5053664;28;20049;-75
2022/08/02 04:07:50;;;;;;;12.07;6.10;;;12.40;99.90;;;;;;5054803;28;20041;-75
2022/08/02 04:10:16;;;;;;;13.50;6.28;;;12.40;99.90;;;;;;5054729;28;20480;-76
2022/08/02 04:12:42;;;;;;;12.40;6.13;;;12.40;99.90;;;;;;5054551;28;20105;-76
2022/08/02 04:15:11;;;;;;;10.27;5.45;;;12.40;99.90;;;;;;5056165;28;20045;-75
2022/08/02 04:17:41;;;;;;;13.43;5.50;;;12.40;99.90;;;;;;5055911;28;20541;-76
2022/08/02 04:20:17;;;;;;;14.52;6.18;;;12.50;99.90;;;;;;5056066;28;20142;-75
2022/08/02 04:23:00;;;;;;;14.40;5.82;;;12.40;99.90;;;;;;5055949;28;20128;-75
2022/08/02 04:25:27;;;;;;;17.25;6.68;;;12.50;99.90;;;;;;5055945;28;20127;-75
2022/08/02 04:27:53;;;;;;;13.13;5.65;;;12.50;99.90;;;;;;5054528;28;20121;-75
2022/08/02 04:30:20;;;;;;;13.68;7.30;;;12.50;99.90;;;;;;5054387;28;20071;-76
2022/08/02 04:32:46;;;;;;;14.45;5.70;;;12.60;99.90;;;;;;5055848;28;20071;-75
2022/08/02 04:35:12;;;;;;;16.27;6.32;;;12.60;99.90;;;;;;5055450;28;20081;-75
2022/08/02 04:37:38;;;;;;;17.88;6.00;;;12.70;99.90;;;;;;5055430;28;20559;-76
2022/08/02 04:40:14;;;;;;;12.90;6.18;;;12.70;99.90;;;;;;5054444;28;20072;-75
2022/08/02 04:42:40;;;;;;;11.73;5.93;;;12.70;99.90;;;;;;5054160;28;20080;-75
2022/08/02 04:45:07;;;;;;;12.35;5.93;;;12.80;99.90;;;;;;5054017;28;20045;-75
2022/08/02 04:47:33;;;;;;;11.80;5.70;;;12.90;99.90;;;;;;5055301;28;20041;-76
2022/08/02 04:49:59;;;;;;;12.55;5.95;;;12.90;99.90;;;;;;5055456;28;20491;-77
2022/08/02 04:52:25;;;;;;;11.45;6.03;;;13.00;99.90;;;;;;5055198;28;20128;-76
2022/08/02 04:54:52;;;;;;;16.65;6.60;;;13.10;99.90;;;;;;5055321;28;20153;-75
2022/08/02 05:00:04;;;;;;;14.48;5.70;;;13.20;99.90;;;;;;5053743;28;20056;-76
2022/08/02 05:02:30;;;;;;;17.67;6.30;;;13.30;99.90;;;;;;5055016;28;20136;-76
2022/08/02 05:04:55;;;;;;;15.48;6.70;;;13.30;99.90;;;;;;5053529;28;20115;-76
2022/08/02 05:07:21;;;;;;;14.82;6.80;;;13.40;99.90;;;;;;5053728;28;20084;-75
2022/08/02 05:09:47;;;;;;;17.40;6.60;;;13.50;99.90;;;;;;5053974;28;20037;-76
2022/08/02 05:12:12;;;;;;;14.25;5.38;;;13.50;99.90;;;;;;5053886;28;20052;-76
2022/08/02 05:14:38;;;;;;;12.27;5.72;;;13.50;99.90;;;;;;5054985;28;20420;-75
2022/08/02 05:17:03;;;;;;;13.80;5.88;;;13.60;99.90;;;;;;5053336;28;20134;-76
2022/08/02 05:19:29;;;;;;;12.40;5.18;;;13.60;99.90;;;;;;5053631;28;20051;-76
2022/08/02 05:21:55;;;;;;;14.35;6.32;;;13.60;99.90;;;;;;5053630;28;20442;-75
2022/08/02 05:24:20;;;;;;;17.20;6.65;;;13.70;99.90;;;;;;5053537;28;20052;-76
2022/08/02 05:26:46;;;;;;;10.25;6.50;;;13.70;99.90;;;;;;5054470;28;20450;-75
2022/08/02 05:29:12;;;;;;;16.08;5.85;;;13.70;99.90;;;;;;5054509;28;20053;-76
2022/08/02 05:31:37;;;;;;;12.45;6.15;;;13.70;99.90;;;;;;5054539;28;20048;-76
2022/08/02 05:34:03;;;;;;;14.77;5.57;;;13.80;99.90;;;;;;5053414;28;20075;-76
2022/08/02 05:36:28;;;;;;;13.80;5.97;;;13.80;99.90;;;;;;5053344;28;20077;-76
2022/08/02 05:38:54;;;;;;;14.68;6.13;;;13.90;99.90;;;;;;5054573;28;20475;-76
2022/08/02 05:41:20;;;;;;;14.52;6.03;;;13.90;99.90;;;;;;5053311;28;20094;-76
2022/08/02 05:43:46;;;;;;;17.30;6.20;;;14.00;99.90;;;;;;5054487;28;20041;-76
2022/08/02 05:46:12;;;;;;;13.80;5.90;;;14.10;99.90;;;;;;5052975;28;20072;-77
2022/08/02 05:48:37;;;;;;;14.07;5.75;;;14.10;99.90;;;;;;5054374;28;20079;-76
2022/08/02 05:51:05;;;;;;;11.60;6.18;;;14.20;99.90;;;;;;5054049;28;20080;-76
2022/08/02 05:53:49;;;;;;;13.45;5.70;;;14.30;99.90;;;;;;5052997;28;20072;-76
2022/08/02 05:56:29;;;;;;;12.63;6.63;;;14.40;99.90;;;;;;5054244;28;20132;-77
2022/08/02 05:59:16;;;;;;;14.80;6.18;;;14.60;99.90;;;;;;5052674;28;20041;-77
2022/08/02 06:01:44;;;;;;;12.60;5.57;;;14.80;99.90;;;;;;5054211;28;20098;-77
2022/08/02 06:04:14;;;;;;;11.50;4.95;;;15.00;99.90;;;;;;5054071;28;20044;-77
2022/08/02 06:06:43;;;;;;;12.82;5.60;;;15.10;99.90;;;;;;5052571;28;20056;-77
2022/08/02 06:09:14;;;;;;;11.70;5.57;;;15.30;99.90;;;;;;5053877;28;20056;-77
2022/08/02 06:11:45;;;;;;;15.15;5.75;;;15.40;99.90;;;;;;5052499;28;20057;-76
2022/08/02 06:14:12;;;;;;;11.80;5.65;;;15.60;99.90;;;;;;5053896;28;20071;-77
2022/08/02 06:16:38;;;;;;;13.07;5.28;;;15.80;99.90;;;;;;5050695;28;20515;-77
2022/08/02 06:19:05;;;;;;;9.30;4.72;;;15.90;99.90;;;;;;5043072;28;20045;-76
2022/08/02 06:21:32;;;;;;;10.48;5.38;;;16.10;99.90;;;;;;5032259;28;20087;-76
2022/08/02 06:23:58;;;;;;;11.98;5.35;;;16.20;99.90;;;;;;5033630;28;20120;-77
2022/08/02 06:26:25;;;;;;;14.15;5.50;;;16.30;99.90;;;;;;5032113;28;20050;-77
2022/08/02 06:28:55;;;;;;;10.15;5.28;;;16.40;99.90;;;;;;5032576;28;20129;-77
2022/08/02 06:31:21;;;;;;;11.02;5.05;;;16.40;99.90;;;;;;5033652;28;20053;-77
2022/08/02 06:33:47;;;;;;;10.55;5.05;;;16.50;99.90;;;;;;5033575;28;20120;-77
2022/08/02 06:36:26;;;;;;;13.70;5.00;;;16.60;99.90;;;;;;5032059;28;20125;-76
2022/08/02 06:39:07;;;;;;;10.50;4.63;;;16.70;99.90;;;;;;5033544;28;20120;-77
2022/08/02 06:41:43;;;;;;;13.27;4.82;;;16.80;99.90;;;;;;5032020;28;20073;-77
2022/08/02 06:44:09;;;;;;;12.57;4.38;;;17.00;99.90;;;;;;5032265;28;20053;-77
2022/08/02 06:46:35;;;;;;;8.63;3.80;;;17.10;99.90;;;;;;5033148;28;20068;-77
2022/08/02 06:49:01;;;;;;;11.45;4.25;;;17.20;99.90;;;;;;5032993;28;20081;-77
2022/08/02 06:51:27;;;;;;;9.38;4.13;;;17.40;99.90;;;;;;5033407;28;20047;-76
2022/08/02 06:53:53;;;;;;;10.13;3.60;;;17.60;99.90;;;;;;5033407;28;20120;-77
2022/08/02 06:56:19;;;;;;;10.50;4.50;;;17.80;99.90;;;;;;5033469;28;20396;-77
2022/08/02 06:58:44;;;;;;;10.32;3.78;;;18.00;99.90;;;;;;5033365;28;20060;-76
2022/08/02 07:01:11;;;;;;;9.57;3.65;;;18.00;99.90;;;;;;5033537;28;20099;-77
2022/08/02 07:03:38;;;;;;;12.25;3.70;;;18.10;99.90;;;;;;5032249;28;20444;-77
2022/08/02 07:06:05;;;;;;;10.27;3.90;;;18.10;99.90;;;;;;5031965;28;20065;-77
2022/08/02 07:08:31;;;;;;;8.13;3.30;;;18.20;99.90;;;;;;5033099;28;20412;-77
2022/08/02 07:11:04;;;;;;;8.68;3.20;;;18.20;99.90;;;;;;5033420;28;20041;-77
2022/08/02 07:13:29;;;;;;;9.95;3.28;;;18.40;99.90;;;;;;5033215;28;20475;-77
2022/08/02 07:15:55;;;;;;;6.45;2.60;;;18.40;99.90;;;;;;5032118;28;20077;-77
2022/08/02 07:18:22;;;;;;;7.47;3.05;;;18.60;99.90;;;;;;5031897;28;20061;-77
2022/08/02 07:20:47;;;;;;;9.63;2.72;;;18.70;99.90;;;;;;5032106;28;20050;-77
2022/08/02 07:23:13;;;;;;;7.45;2.60;;;18.90;99.90;;;;;;5033164;28;20117;-77
2022/08/02 07:25:39;;;;;;;6.35;2.42;;;18.90;99.90;;;;;;5031892;28;20073;-77
2022/08/02 07:28:07;;;;;;;7.45;2.50;;;19.00;99.90;;;;;;5032873;28;20045;-77
2022/08/02 07:30:33;;;;;;;6.78;2.85;;;19.10;99.90;;;;;;5031690;28;20088;-77
2022/08/02 07:32:59;;;;;;;5.90;2.10;;;19.30;99.90;;;;;;5033159;28;20068;-77
2022/08/02 07:35:25;;;;;;;7.38;2.15;;;19.40;99.90;;;;;;5031791;28;20056;-77
2022/08/02 07:37:51;;;;;;;6.72;2.60;;;19.60;99.90;;;;;;5031794;28;20124;-77
2022/08/02 07:40:17;;;;;;;7.80;1.90;;;19.70;99.90;;;;;;5036317;28;20133;-77
2022/08/02 07:42:43;;;;;;;6.30;2.03;;;20.00;99.90;;;;;;5035570;28;20053;-77
2022/08/02 07:45:10;;;;;;;5.95;1.92;;;20.00;99.90;;;;;;5035323;28;20045;-77
2022/08/02 07:47:37;;;;;;;5.30;1.80;;;20.10;99.90;;;;;;5035526;28;20056;-77
2022/08/02 07:50:04;;;;;;;7.07;2.25;;;20.30;99.90;;;;;;5035535;28;20124;-77
2022/08/02 07:52:30;;;;;;;5.03;2.05;;;20.40;99.90;;;;;;5036383;28;20554;-77
2022/08/02 07:54:55;;;;;;;4.53;2.15;;;20.70;99.90;;;;;;5035424;28;20041;-77
2022/08/02 07:57:21;;;;;;;6.95;1.60;;;20.80;99.90;;;;;;5036559;28;20137;-77
2022/08/02 07:59:47;;;;;;;4.20;1.50;;;20.90;99.90;;;;;;5036298;28;20096;-77
2022/08/02 08:02:13;;;;;;;5.60;1.50;;;21.00;99.90;;;;;;5036470;28;20033;-77
2022/08/02 08:04:40;;;;;;;5.85;2.00;;;20.90;99.90;;;;;;5036282;28;20072;-77
2022/08/02 08:07:08;;;;;;;4.25;1.58;;;21.20;99.90;;;;;;5034886;28;20045;-77
2022/08/02 08:09:39;;;;;;;4.72;1.42;;;21.20;99.90;;;;;;5035100;28;20041;-77
2022/08/02 08:12:05;;;;;;;2.78;1.40;;;21.30;99.90;;;;;;5034883;28;20049;-77
2022/08/02 08:14:31;;;;;;;4.03;1.65;;;21.30;99.90;;;;;;5036280;28;20125;-77
2022/08/02 08:16:57;;;;;;;3.92;1.55;;;21.50;99.90;;;;;;5036251;28;20365;-76
2022/08/02 08:19:22;;;;;;;6.97;2.03;;;21.50;99.90;;;;;;5034682;28;20054;-77
2022/08/02 08:21:48;;;;;;;4.10;1.42;;;21.50;99.90;;;;;;5035969;28;20120;-77
2022/08/02 08:24:13;;;;;;;3.25;1.48;;;21.50;99.90;;;;;;5034596;28;20477;-77
2022/08/02 08:26:39;;;;;;;4.40;1.40;;;21.50;99.90;;;;;;5034472;28;20095;-77
2022/08/02 08:29:06;;;;;;;4.10;1.30;;;21.60;99.90;;;;;;5034422;28;20049;-77
2022/08/02 08:31:32;;;;;;;5.47;1.45;;;21.70;99.90;;;;;;5035684;28;20466;-76
2022/08/02 08:33:58;;;;;;;2.78;1.27;;;21.80;99.90;;;;;;5034386;28;20455;-76
2022/08/02 08:36:24;;;;;;;4.22;1.27;;;21.90;99.90;;;;;;5035940;28;20045;-77
2022/08/02 08:38:49;;;;;;;2.67;1.17;;;21.90;99.90;;;;;;5034724;28;20042;-77
2022/08/02 08:41:16;;;;;;;3.22;1.45;;;22.20;99.90;;;;;;5035612;28;20103;-77
2022/08/02 08:43:43;;;;;;;4.07;1.33;;;22.30;99.90;;;;;;5035550;28;20504;-77
2022/08/02 08:46:15;;;;;;;6.07;1.40;;;22.40;99.90;;;;;;5035423;28;20050;-77
2022/08/02 08:48:45;;;;;;;3.50;1.25;;;22.30;99.90;;;;;;5034117;28;20506;-77
2022/08/02 08:51:15;;;;;;;4.32;1.52;;;22.40;99.90;;;;;;5033768;28;20508;-77
2022/08/02 08:53:46;;;;;;;3.95;1.20;;;22.40;99.90;;;;;;5034325;28;20485;-77
2022/08/02 08:56:15;;;;;;;5.30;1.83;;;22.30;99.90;;;;;;5034052;28;20041;-77
2022/08/02 08:58:41;;;;;;;3.80;1.05;;;22.40;99.90;;;;;;5034163;28;20057;-76
2022/08/02 09:01:08;;;;;;;4.55;1.30;;;22.40;99.90;;;;;;5035120;28;20394;-77
2022/08/02 09:03:34;;;;;;;4.60;1.40;;;22.50;99.90;;;;;;5035224;28;20044;-77
2022/08/02 09:06:01;;;;;;;4.03;1.40;;;22.60;99.90;;;;;;5035009;28;20503;-77
2022/08/02 09:08:27;;;;;;;5.13;1.50;;;22.80;99.90;;;;;;5034009;28;20046;-76
2022/08/02 09:10:54;;;;;;;3.15;1.40;;;23.00;99.90;;;;;;5033661;28;20056;-78
2022/08/02 09:13:23;;;;;;;4.15;1.33;;;23.00;99.90;;;;;;5033656;28;20052;-78
2022/08/02 09:15:58;;;;;;;4.32;1.50;;;23.00;99.90;;;;;;5033905;28;20093;-76
2022/08/02 09:18:36;;;;;;;4.10;1.25;;;23.00;99.90;;;;;;5033569;28;20053;-77
2022/08/02 09:21:04;;;;;;;4.45;1.30;;;22.90;99.90;;;;;;5033906;28;20049;-76
2022/08/02 09:23:37;;;;;;;2.50;1.20;;;22.90;99.90;;;;;;5033808;28;20085;-77
2022/08/02 09:26:08;;;;;;;3.35;1.65;;;22.90;99.90;;;;;;5033447;28;20041;-77
2022/08/02 09:28:40;;;;;;;4.18;1.90;;;22.90;99.90;;;;;;5033176;28;20104;-77
2022/08/02 09:31:19;;;;;;;4.78;1.67;;;22.80;99.90;;;;;;5033506;28;20049;-77
2022/08/02 09:33:51;;;;;;;3.25;1.30;;;22.80;99.90;;;;;;5034586;28;20494;-77
2022/08/02 09:36:17;;;;;;;5.10;1.50;;;22.90;99.90;;;;;;5033346;28;20060;-77
2022/08/02 09:38:56;;;;;;;5.47;2.05;;;22.90;99.90;;;;;;5033451;28;20049;-77
2022/08/02 09:41:27;;;;;;;5.15;1.98;;;22.90;99.90;;;;;;5033113;28;20057;-77
2022/08/02 09:43:54;;;;;;;5.18;1.42;;;22.90;99.90;;;;;;5033327;28;20037;-77
2022/08/02 09:46:28;;;;;;;3.90;1.85;;;23.10;99.90;;;;;;5034456;28;20052;-76
2022/08/02 09:48:57;;;;;;;3.17;1.65;;;23.10;99.90;;;;;;5033054;28;20045;-77
2022/08/02 09:51:33;;;;;;;11.77;1.95;;;23.10;99.90;;;;;;5033028;28;20100;-77
2022/08/02 09:54:12;;;;;;;3.97;1.90;;;23.00;99.90;;;;;;5034276;28;20042;-77
2022/08/02 09:56:44;;;;;;;5.95;2.50;;;23.00;99.90;;;;;;5033116;28;20096;-78
2022/08/02 09:59:10;;;;;;;4.47;1.88;;;23.20;99.90;;;;;;5033117;28;20055;-79
2022/08/02 10:01:37;;;;;;;4.95;2.20;;;23.40;99.90;;;;;;5032344;28;20047;-77
2022/08/02 10:04:05;;;;;;;4.53;1.98;;;23.50;99.90;;;;;;5032325;28;20484;-77
2022/08/02 10:06:32;;;;;;;4.60;2.33;;;23.70;99.90;;;;;;5034147;28;20037;-77
2022/08/02 10:08:58;;;;;;;4.88;2.58;;;23.80;99.90;;;;;;5032739;28;20099;-77
2022/08/02 10:11:26;;;;;;;4.22;2.20;;;23.90;99.90;;;;;;5032685;28;20049;-76
2022/08/02 10:13:52;;;;;;;6.30;2.60;;;24.20;99.90;;;;;;5032629;28;20100;-77
2022/08/02 10:16:22;;;;;;;6.43;2.60;;;24.20;99.90;;;;;;5032550;28;20045;-77
2022/08/02 10:18:53;;;;;;;6.47;2.47;;;24.30;99.90;;;;;;5032755;28;20037;-77
2022/08/02 10:21:28;;;;;;;5.20;2.75;;;24.40;99.90;;;;;;5032646;28;20374;-77
2022/08/02 10:24:01;;;;;;;9.80;3.33;;;24.40;99.90;;;;;;5032462;28;20045;-77
2022/08/02 10:26:28;;;;;;;7.38;3.10;;;24.30;99.90;;;;;;5032421;28;20385;-77
2022/08/02 10:28:53;;;;;;;7.80;3.20;;;24.10;99.90;;;;;;5032143;28;20057;-77
2022/08/02 10:31:24;;;;;;;7.40;3.45;;;24.10;99.90;;;;;;5032246;28;20053;-77
2022/08/02 10:33:51;;;;;;;10.50;4.13;;;23.90;99.90;;;;;;5033436;28;20547;-77
2022/08/02 10:36:19;;;;;;;6.85;4.22;;;23.90;99.90;;;;;;5032259;28;20073;-77
2022/08/02 10:38:45;;;;;;;7.47;4.30;;;23.80;99.90;;;;;;5033710;28;20060;-77
2022/08/02 10:41:11;;;;;;;8.40;4.45;;;23.80;99.90;;;;;;5033718;28;20049;-77
2022/08/02 10:43:37;;;;;;;9.43;4.10;;;23.70;99.90;;;;;;5032232;28;20045;-77
2022/08/02 10:46:38;;;;;;;7.32;3.97;;;23.70;99.90;;;;;;5033544;28;20052;-77
2022/08/02 10:49:18;;;;;;;9.27;4.40;;;23.70;99.90;;;;;;4992264;28;20053;-77
2022/08/02 10:52:02;;;;;;;8.25;4.00;;;23.80;99.90;;;;;;5029037;28;20058;-76
2022/08/02 10:54:30;;;;;;;8.05;4.30;;;23.80;99.90;;;;;;5032013;28;20055;-77
2022/08/02 10:56:58;;;;;;;11.25;4.35;;;23.80;99.90;;;;;;5032170;28;20045;-77
2022/08/02 10:59:28;;;;;;;6.88;4.10;;;23.90;99.90;;;;;;5033205;28;20076;-77
2022/08/02 11:02:01;;;;;;;7.43;4.05;;;23.90;99.90;;;;;;5033488;28;20046;-77
2022/08/02 11:04:29;;;;;;;6.63;4.00;;;24.10;99.90;;;;;;5032040;28;20132;-77
2022/08/02 11:07:16;;;;;;;7.05;3.83;;;23.90;99.90;;;;;;5032088;28;20488;-77
2022/08/02 11:09:46;;;;;;;5.13;3.25;;;23.90;99.90;;;;;;5032162;28;20049;-77
2022/08/02 11:12:14;;;;;;;8.13;3.60;;;23.90;99.90;;;;;;5032373;28;20123;-77
2022/08/02 11:15:05;;;;;;;10.55;4.38;;;23.70;99.90;;;;;;5035732;28;20393;-77
2022/08/02 11:17:53;;;;;;;9.00;4.35;;;23.70;99.90;;;;;;5036857;28;20136;-77
2022/08/02 11:20:21;;;;;;;6.38;4.20;;;23.70;99.90;;;;;;5036034;28;20056;-78
2022/08/02 11:22:50;;;;;;;6.75;3.75;;;23.60;99.90;;;;;;5035715;28;20408;-77
2022/08/02 11:25:22;;;;;;;6.43;3.72;;;23.60;99.90;;;;;;5037157;28;20046;-77
2022/08/02 11:27:59;;;;;;;7.53;4.05;;;23.70;99.90;;;;;;5036845;28;20049;-77
2022/08/02 11:30:26;;;;;;;7.50;4.13;;;23.70;99.90;;;;;;5036886;28;20042;-77
2022/08/02 11:32:56;;;;;;;5.78;4.35;;;23.80;99.90;;;;;;5035520;28;20044;-77
2022/08/02 11:35:22;;;;;;;8.35;4.57;;;23.80;99.90;;;;;;5035733;28;20059;-77
2022/08/02 11:37:48;;;;;;;10.50;6.40;;;23.70;99.90;;;;;;5035505;28;20046;-77
2022/08/02 11:40:16;;;;;;;12.88;8.43;;;23.70;99.90;;;;;;5036705;28;20077;-77
2022/08/02 11:42:45;;;;;;;10.77;7.90;;;23.70;99.90;;;;;;5035597;28;20125;-77
2022/08/02 11:45:13;;;;;;;12.25;8.27;;;23.70;99.90;;;;;;5035467;28;20081;-77
2022/08/02 11:47:46;;;;;;;13.18;9.15;;;23.60;99.90;;;;;;5035597;28;20124;-77
2022/08/02 11:50:11;;;;;;;;;;;23.50;99.90;;;;;;5035885;28;20049;-77
2022/08/02 11:52:37;;;;;;;13.55;10.50;;;23.30;99.90;;;;;;5036702;28;20394;-77
2022/08/02 11:55:05;;;;;;;16.38;11.75;;;23.40;99.90;;;;;;5036713;28;20034;-77
2022/08/02 11:57:31;;;;;;;15.55;11.45;;;23.30;99.90;;;;;;5036329;28;20045;-77
2022/08/02 11:59:56;;;;;;;15.80;10.57;;;23.30;99.90;;;;;;5036299;28;20397;-77
2022/08/02 12:02:32;;;;;;;15.45;11.07;;;23.30;99.90;;;;;;5035076;28;20133;-77
2022/08/02 12:05:04;;;;;;;16.17;12.10;;;23.40;99.90;;;;;;5034950;28;20484;-77
2022/08/02 12:07:32;;;;;;;14.95;11.90;;;23.40;99.90;;;;;;5035232;28;20084;-77
2022/08/02 12:10:10;;;;;;;14.93;11.98;;;23.40;99.90;;;;;;5035130;28;20054;-78
2022/08/02 12:12:57;;;;;;;13.40;10.52;;;23.40;99.90;;;;;;5036336;28;20053;-77
2022/08/02 12:15:40;;;;;;;15.50;11.05;;;23.30;99.90;;;;;;5036305;28;20072;-76
2022/08/02 12:20:54;;;;;;;15.80;10.82;;;23.10;99.90;;;;;;5036127;28;20016;-77
2022/08/02 12:23:20;;;;;;;16.05;11.75;;;23.10;99.90;;;;;;5034873;28;20120;-76
2022/08/02 12:25:57;;;;;;;15.75;11.50;;;23.10;99.90;;;;;;5034987;28;20046;-76
2022/08/02 12:28:25;;;;;;;15.60;11.55;;;23.10;99.90;;;;;;5034401;28;20079;-77
2022/08/02 12:30:59;;;;;;;14.90;11.48;;;23.10;99.90;;;;;;5035879;28;20053;-77
2022/08/02 12:33:28;;;;;;;18.35;12.27;;;23.10;99.90;;;;;;5034514;28;20068;-77
2022/08/02 12:35:55;;;;;;;17.15;11.85;;;23.00;99.90;;;;;;5034506;28;20050;-77
2022/08/02 12:38:21;;;;;;;18.15;11.88;;;23.00;99.90;;;;;;5035891;28;20076;-77
2022/08/02 12:40:47;;;;;;;20.98;12.30;;;22.90;99.90;;;;;;5034296;28;20084;-77
2022/08/02 12:43:18;;;;;;;18.77;12.95;;;22.70;99.90;;;;;;5035558;28;20113;-77
2022/08/02 12:45:52;;;;;;;17.92;11.32;;;22.70;99.90;;;;;;5035363;28;20047;-77
2022/08/02 12:48:39;;;;;;;17.30;12.75;;;22.70;99.90;;;;;;5035219;28;20046;-77
2022/08/02 12:51:27;;;;;;;14.85;11.60;;;22.70;99.90;;;;;;5035482;28;20034;-77
2022/08/02 12:54:09;;;;;;;22.38;13.75;;;22.60;99.90;;;;;;5035576;28;20049;-77
2022/08/02 12:56:37;;;;;;;20.67;12.60;;;22.50;99.90;;;;;;5035558;28;20041;-78